Denton, MT (59430)

9:59 PM MST on February 23, 2017 (GMT -0700)
Denton | | Change Station

Elev 3596 ft 47.32 °N, 109.95 °W | Updated 5 seconds ago

Overcast
Overcast
21.9 °F
Feels Like 22 °F
N
2.9
Wind Variable Wind from South
Gusts 4.9 mph

Today
High -- | Low -- °F
--% Chance of Precip.
Yesterday
High -- | Low -- °F
Precip. -- in
Pressure 30.09 in
Visibility 10.0 miles
Clouds Overcast 3800 ft
Windchill 22 °F
Dew Point 17 °F
Humidity 81%
Rainfall 0.00 in
Snow Depth Not available.
7:10 AM 5:56 PM
Waning Crescent, 7% visible
METAR KLWT 240454Z AUTO 10010KT 10SM OVC038 M06/M08 A2996 RMK AO2 SNB10E20 SLP187 P0000 T10561083
Pressure 30.09 in
Visibility 10.0 miles
Clouds Overcast 3800 ft
Windchill 22 °F
Dew Point 17 °F
Humidity 81%
Rainfall 0.00 in
Snow Depth Not available.
7:10 AM 5:56 PM
Waning Crescent, 7% visible
METAR KLWT 240454Z AUTO 10010KT 10SM OVC038 M06/M08 A2996 RMK AO2 SNB10E20 SLP187 P0000 T10561083

Get Your Daily Forecast Email!

Thanks for signing up!

Be on the lookout for a verification email in your inbox.

You'll start receiving the daily forecast at 8 AM.

×

10-Day Weather Forecast

Almanac

Astronomy

Feb. 23, 2017 Rise Set
Actual Time
Civil Twilight
Nautical Twilight
Astronomical Twilight
Moon
Length of Visible Light
Length of Day
Tomorrow will be .
, % of the Moon is Illuminated

Today's Extremes

State Highs State Lows

Community

WunderPhotos

Upload Photos

1,962,540 photos uploaded!

WunderBlog® & News

Nearby

Air Quality

  Air Quality AQ Index Pollutant
Not available.

Snow Depth

Station Depth Elevation

Earthquake Activity

City Distance Mag. Time & Date
Minimum magnitude displayed is 2.5.

Coastal Water Temperatures

Place Temperature

Stations

Nearby Weather Stations

Station Location Temp. Windchill Dew Point Humidity Wind Precip. Elev Updated Type
                   

Watches & Warnings

There are currently no watches in effect.